Share

Stella, MO

Farm Road 2100 (KMOWHEAT3) Elev 1335 ft | 36.79 °N, 94.07 °W | Change Station

Current weather conditions updated 1 second ago

Clear
Clear
52.4 °F
Feels Like 52.4 °F
N
5.0
Wind Variable Wind from ESE
Gusts 6.0 mph
Sunrise 6:37 AM
Sunset 7:54 PM
Moon Waning Gibbous

Today is forecast to be Warmer than yesterday.

Pressure 30.20 in
Visibility 10.0 miles
Clouds Clear
Dew Point 44 °F
Humidity 73%
Rainfall 0.00 in
Snow Depth Not available.
UV 0 out of 16
Pollen 10.00 out of 12
Air Quality Not available.
Flu Activity Sporadic
METAR KVBT 190735Z AUTO 15005KT 10SM CLR 12/06 A3020 RMK AO1

More Conditions Fewer Conditions

Pressure 30.20 in
Visibility 10.0 miles
Clouds Clear
Dew Point 44 °F
Humidity 73%
Rainfall 0.00 in
Snow Depth Not available.
UV 0 out of 16
Pollen 10.00 out of 12
Air Quality Not available.
Flu Activity Sporadic
METAR KVBT 190735Z AUTO 15005KT 10SM CLR 12/06 A3020 RMK AO1

More Conditions Fewer Conditions

10-Day Weather Forecast

Almanac

Astronomy

Apr. 19, 2014 Rise Set
Actual Time 6:37 AM CDT 7:54 PM CDT
Civil Twilight 6:10 AM CDT 8:21 PM CDT
Nautical Twilight 5:38 AM CDT 8:54 PM CDT
Astronomical Twilight 5:04 AM CDT 9:27 PM CDT
Moon No Moon Rise 10:00 AM CDT
Length of Visible Light 14h 11m
Length of Day
13h 17m
Tomorrow will be 2m 10s longer.
Waning Gibbous, 82% of the Moon is Illuminated
Today
Waning Gibbous
Apr 22
Last Quarter
Apr 29
New
May 6
First Quarter
May 14
Full

Today's Extremes

State Highs State Lows

Community

  • Sunset Silhouettes
    Sunset Silhouettes
  • FL sunset Perico Isle
    FL sunset Perico Isle
  • Cloudy spring view
    Cloudy spring view
  • Old barn
    Old barn
  • What's for Lunch?
    What's for Lunch?

WunderPhotos

Upload Photos

1,702,669 photos uploaded!

WunderBlogs® & News

Nearby

Snow Depth

Station Depth Elevation
No new snow has been reported.

Coastal Water Temperatures

Place Temperature
No Stations Reporting

Earthquake Activity

City Distance Mag. Time & Date
No recent earthquake activity has been reported nearby.
Minimum magnitude displayed is 2.5.

Nearby Weather Stations

Station Location Temp. Windchill Dew Point Humidity Wind Precip. Elev Updated Type
Farm Road 2100, Wheaton, MO 52.4 °F - 44 °F 73% ESE  at  5.0 mph 0.00 in / hr 1335 ft 2:52 AM CDT Rapid Fire
NonFedAWOS NEOSHO AIRPORT , Neosho, MO 55 °F - 45 °F 67% SE  at  6 mph 0.00 in / hr 1254 ft 1:55 AM CDT MADIS
Loch Lomond, Bella Vista, AR 52.3 °F - 43 °F 70% West  at  0.0 mph 0.00 in / hr 1243 ft 2:03 AM CDT Normal
Monett, MO 48.4 °F 48 °F 42 °F 78% East  at  1.5 mph 0.00 in / hr 1306 ft 2:52 AM CDT Normal
W5VAN, Rogers, AR 48.4 °F 48 °F 41 °F 75% SE  at  0.0 mph 0.00 in / hr 1227 ft 3:52 AM EDT Rapid Fire
Avoca, Rogers, AR 52.2 °F - 45 °F 76% ESE  at  2.2 mph - / hr 1348 ft 2:37 AM CDT Normal

Show More Stations Show Fewer Stations

What do you think?

We're not finished. Please let us know what you like, what you don't like, and what you are still missing.